County Memorial Airport


Codes: KEIW/
Name: County Memorial Airport
City: New Madrid
Country: United States
Elevation: 296 ft.

Photos at County Memorial Airport


   Photos courtesy of SpottingLog. You can add your own sightings and photos by signing up for a free trial today.



No photos found.

Weather at County Memorial Airport


Time (UTC)DescriptionTempratureWindCloud coverageVisibilityPressureHumidity
23-May-2024 21:00Overcast Clouds26°C9 mph, SW89%10000m1012hPa67%
24-May-2024 00:00Broken Clouds25°C4 mph, S56%10000m1012hPa73%
24-May-2024 03:00Few Clouds21°C7 mph, SE14%10000m1011hPa93%
24-May-2024 06:00Scattered Clouds20°C7 mph, SE39%10000m1010hPa96%
24-May-2024 09:00Light Rain19°C9 mph, S100%10000m1009hPa94%
24-May-2024 12:00Light Rain19°C7 mph, S84%10000m1010hPa93%
24-May-2024 15:00Clear Sky24°C11 mph, SW3%10000m1010hPa73%
24-May-2024 18:00Few Clouds27°C13 mph, SW15%10000m1009hPa67%
24-May-2024 21:00Light Rain26°C11 mph, S100%10000m1008hPa74%
25-May-2024 00:00Light Rain25°C9 mph, S89%10000m1008hPa80%
25-May-2024 03:00Light Rain24°C7 mph, S92%10000m1009hPa90%
25-May-2024 06:00Light Rain22°C7 mph, S97%10000m1009hPa94%
25-May-2024 09:00Light Rain22°C2 mph, SW90%10000m1009hPa92%
25-May-2024 12:00Broken Clouds21°C9 mph, N57%10000m1011hPa94%
25-May-2024 15:00Broken Clouds24°C9 mph, NE57%10000m1011hPa73%
25-May-2024 18:00Scattered Clouds28°C4 mph, SE46%10000m1011hPa68%
25-May-2024 21:00Light Rain29°C2 mph, SW72%10000m1009hPa64%
26-May-2024 00:00Light Rain28°C2 mph, S57%10000m1009hPa73%
26-May-2024 03:00Clear Sky24°C7 mph, SE0%10000m1009hPa89%
26-May-2024 06:00Few Clouds23°C9 mph, SE19%10000m1008hPa93%
26-May-2024 09:00Light Rain23°C13 mph, S76%10000m1006hPa91%
26-May-2024 12:00Light Rain23°C16 mph, S89%10000m1006hPa92%
26-May-2024 15:00Scattered Clouds27°C20 mph, S27%10000m1005hPa74%
26-May-2024 18:00Scattered Clouds29°C22 mph, SW28%10000m1004hPa68%
26-May-2024 21:00Light Rain30°C22 mph, SW65%10000m1003hPa66%
27-May-2024 00:00Light Rain28°C20 mph, SW33%10000m1003hPa73%
27-May-2024 03:00Moderate Rain26°C13 mph, SW34%10000m1005hPa80%
27-May-2024 06:00Light Rain22°C7 mph, NW18%10000m1006hPa82%
27-May-2024 09:00Few Clouds21°C7 mph, NW16%10000m1006hPa85%
27-May-2024 12:00Clear Sky21°C4 mph, W8%10000m1009hPa86%
27-May-2024 15:00Clear Sky26°C4 mph, W0%10000m1010hPa63%
27-May-2024 18:00Clear Sky29°C4 mph, SW0%10000m1010hPa49%
27-May-2024 21:00Clear Sky31°C7 mph, SW3%10000m1008hPa44%
28-May-2024 00:00Clear Sky28°C7 mph, NW9%10000m1007hPa61%
28-May-2024 03:00Light Rain20°C13 mph, E100%10000m1012hPa88%
28-May-2024 06:00Overcast Clouds19°C9 mph, E98%10000m1013hPa88%
28-May-2024 09:00Few Clouds16°C11 mph, N24%10000m1013hPa84%
28-May-2024 12:00Few Clouds16°C7 mph, NE12%10000m1017hPa85%
28-May-2024 15:00Clear Sky20°C7 mph, NE2%10000m1016hPa66%
28-May-2024 18:00Clear Sky24°C7 mph, N2%10000m1016hPa52%